sensor_id;sensor_type;location;lat;lon;timestamp;P1;durP1;ratioP1;P2;durP2;ratioP2
25663;SDS011;13522;50.018;20.014;2023-01-09T00:03:03;74.60;;;45.35;;
25663;SDS011;13522;50.018;20.014;2023-01-09T00:06:16;71.95;;;43.40;;
25663;SDS011;13522;50.018;20.014;2023-01-09T00:09:28;68.10;;;41.25;;
25663;SDS011;13522;50.018;20.014;2023-01-09T00:12:41;63.25;;;39.88;;
25663;SDS011;13522;50.018;20.014;2023-01-09T00:15:53;69.98;;;43.63;;
25663;SDS011;13522;50.018;20.014;2023-01-09T00:19:05;70.05;;;43.18;;
25663;SDS011;13522;50.018;20.014;2023-01-09T00:22:18;71.48;;;43.80;;
25663;SDS011;13522;50.018;20.014;2023-01-09T00:25:31;69.15;;;42.03;;
25663;SDS011;13522;50.018;20.014;2023-01-09T00:28:46;66.78;;;40.93;;
25663;SDS011;13522;50.018;20.014;2023-01-09T00:31:59;66.05;;;40.93;;
25663;SDS011;13522;50.018;20.014;2023-01-09T00:35:14;66.60;;;40.30;;
25663;SDS011;13522;50.018;20.014;2023-01-09T00:38:27;70.35;;;42.93;;
25663;SDS011;13522;50.018;20.014;2023-01-09T00:41:41;67.30;;;41.73;;
25663;SDS011;13522;50.018;20.014;2023-01-09T00:44:56;66.68;;;40.80;;
25663;SDS011;13522;50.018;20.014;2023-01-09T00:48:12;69.45;;;41.00;;
25663;SDS011;13522;50.018;20.014;2023-01-09T00:51:29;68.58;;;40.60;;
25663;SDS011;13522;50.018;20.014;2023-01-09T00:54:42;72.58;;;42.28;;
25663;SDS011;13522;50.018;20.014;2023-01-09T00:57:55;61.70;;;39.40;;
25663;SDS011;13522;50.018;20.014;2023-01-09T01:01:08;63.93;;;39.58;;
25663;SDS011;13522;50.018;20.014;2023-01-09T01:04:20;64.48;;;40.48;;
25663;SDS011;13522;50.018;20.014;2023-01-09T01:07:47;61.60;;;38.75;;
25663;SDS011;13522;50.018;20.014;2023-01-09T01:11:02;64.00;;;39.40;;
25663;SDS011;13522;50.018;20.014;2023-01-09T01:14:16;63.73;;;39.93;;
25663;SDS011;13522;50.018;20.014;2023-01-09T01:17:28;67.60;;;38.13;;
25663;SDS011;13522;50.018;20.014;2023-01-09T01:20:40;65.55;;;38.33;;
25663;SDS011;13522;50.018;20.014;2023-01-09T01:23:53;60.60;;;37.13;;
25663;SDS011;13522;50.018;20.014;2023-01-09T01:27:06;65.43;;;40.78;;
25663;SDS011;13522;50.018;20.014;2023-01-09T01:30:18;60.25;;;37.68;;
25663;SDS011;13522;50.018;20.014;2023-01-09T01:33:31;60.43;;;36.83;;
25663;SDS011;13522;50.018;20.014;2023-01-09T01:36:44;60.23;;;36.48;;
25663;SDS011;13522;50.018;20.014;2023-01-09T01:39:56;65.58;;;37.35;;
25663;SDS011;13522;50.018;20.014;2023-01-09T01:43:08;62.95;;;38.30;;
25663;SDS011;13522;50.018;20.014;2023-01-09T01:46:22;64.93;;;39.50;;
25663;SDS011;13522;50.018;20.014;2023-01-09T01:49:35;63.93;;;38.70;;
25663;SDS011;13522;50.018;20.014;2023-01-09T01:52:49;61.28;;;35.65;;
25663;SDS011;13522;50.018;20.014;2023-01-09T01:56:08;58.95;;;37.35;;
25663;SDS011;13522;50.018;20.014;2023-01-09T01:59:24;65.95;;;38.78;;
25663;SDS011;13522;50.018;20.014;2023-01-09T02:02:40;62.35;;;37.48;;
25663;SDS011;13522;50.018;20.014;2023-01-09T02:05:53;59.50;;;37.53;;
25663;SDS011;13522;50.018;20.014;2023-01-09T02:09:07;57.83;;;36.68;;
25663;SDS011;13522;50.018;20.014;2023-01-09T02:12:23;55.93;;;34.40;;
25663;SDS011;13522;50.018;20.014;2023-01-09T02:15:38;61.03;;;37.00;;
25663;SDS011;13522;50.018;20.014;2023-01-09T02:19:09;64.23;;;37.70;;
25663;SDS011;13522;50.018;20.014;2023-01-09T02:22:29;61.65;;;37.60;;
25663;SDS011;13522;50.018;20.014;2023-01-09T02:25:54;62.28;;;38.28;;
25663;SDS011;13522;50.018;20.014;2023-01-09T02:33:34;61.95;;;36.10;;
25663;SDS011;13522;50.018;20.014;2023-01-09T02:36:57;59.05;;;35.43;;
25663;SDS011;13522;50.018;20.014;2023-01-09T02:43:29;63.45;;;37.25;;
25663;SDS011;13522;50.018;20.014;2023-01-09T02:46:41;62.20;;;37.23;;
25663;SDS011;13522;50.018;20.014;2023-01-09T02:49:54;57.38;;;34.45;;
25663;SDS011;13522;50.018;20.014;2023-01-09T02:53:20;60.18;;;36.13;;
25663;SDS011;13522;50.018;20.014;2023-01-09T02:56:48;64.10;;;37.03;;
25663;SDS011;13522;50.018;20.014;2023-01-09T03:00:18;61.13;;;34.80;;
25663;SDS011;13522;50.018;20.014;2023-01-09T03:03:39;52.00;;;32.35;;
25663;SDS011;13522;50.018;20.014;2023-01-09T03:06:57;59.85;;;35.80;;
25663;SDS011;13522;50.018;20.014;2023-01-09T03:10:15;59.60;;;36.10;;
25663;SDS011;13522;50.018;20.014;2023-01-09T03:13:32;55.08;;;35.60;;
25663;SDS011;13522;50.018;20.014;2023-01-09T03:16:51;57.15;;;34.13;;
25663;SDS011;13522;50.018;20.014;2023-01-09T03:20:07;55.08;;;34.53;;
25663;SDS011;13522;50.018;20.014;2023-01-09T03:23:23;55.48;;;33.23;;
25663;SDS011;13522;50.018;20.014;2023-01-09T03:26:35;60.83;;;36.58;;
25663;SDS011;13522;50.018;20.014;2023-01-09T03:29:48;62.03;;;37.73;;
25663;SDS011;13522;50.018;20.014;2023-01-09T03:33:00;61.53;;;37.10;;
25663;SDS011;13522;50.018;20.014;2023-01-09T03:36:14;66.10;;;36.65;;
25663;SDS011;13522;50.018;20.014;2023-01-09T03:39:28;58.65;;;34.05;;
25663;SDS011;13522;50.018;20.014;2023-01-09T03:42:42;53.58;;;32.88;;
25663;SDS011;13522;50.018;20.014;2023-01-09T03:45:55;60.10;;;36.98;;
25663;SDS011;13522;50.018;20.014;2023-01-09T03:49:07;60.88;;;38.38;;
25663;SDS011;13522;50.018;20.014;2023-01-09T03:52:20;59.80;;;37.03;;
25663;SDS011;13522;50.018;20.014;2023-01-09T03:55:32;56.48;;;35.30;;
25663;SDS011;13522;50.018;20.014;2023-01-09T03:58:44;60.00;;;36.30;;
25663;SDS011;13522;50.018;20.014;2023-01-09T04:01:57;63.58;;;36.43;;
25663;SDS011;13522;50.018;20.014;2023-01-09T04:05:10;62.05;;;36.55;;
25663;SDS011;13522;50.018;20.014;2023-01-09T04:08:22;59.58;;;36.15;;
25663;SDS011;13522;50.018;20.014;2023-01-09T04:11:34;64.48;;;38.00;;
25663;SDS011;13522;50.018;20.014;2023-01-09T04:14:46;57.93;;;34.50;;
25663;SDS011;13522;50.018;20.014;2023-01-09T04:17:59;56.93;;;34.95;;
25663;SDS011;13522;50.018;20.014;2023-01-09T04:21:11;62.68;;;36.45;;
25663;SDS011;13522;50.018;20.014;2023-01-09T04:24:23;68.33;;;40.83;;
25663;SDS011;13522;50.018;20.014;2023-01-09T04:27:35;57.05;;;36.83;;
25663;SDS011;13522;50.018;20.014;2023-01-09T04:30:48;60.98;;;37.95;;
25663;SDS011;13522;50.018;20.014;2023-01-09T04:34:00;59.00;;;35.95;;
25663;SDS011;13522;50.018;20.014;2023-01-09T04:37:12;61.35;;;37.60;;
25663;SDS011;13522;50.018;20.014;2023-01-09T04:40:24;58.38;;;35.73;;
25663;SDS011;13522;50.018;20.014;2023-01-09T04:43:37;59.68;;;36.50;;
25663;SDS011;13522;50.018;20.014;2023-01-09T04:46:49;67.13;;;39.05;;
25663;SDS011;13522;50.018;20.014;2023-01-09T04:50:02;57.15;;;34.65;;
25663;SDS011;13522;50.018;20.014;2023-01-09T04:53:15;54.28;;;34.03;;
25663;SDS011;13522;50.018;20.014;2023-01-09T04:56:27;56.05;;;33.90;;
25663;SDS011;13522;50.018;20.014;2023-01-09T04:59:40;57.38;;;34.93;;
25663;SDS011;13522;50.018;20.014;2023-01-09T05:02:52;57.18;;;36.85;;
25663;SDS011;13522;50.018;20.014;2023-01-09T05:06:06;63.88;;;39.53;;
25663;SDS011;13522;50.018;20.014;2023-01-09T05:09:18;61.18;;;38.63;;
25663;SDS011;13522;50.018;20.014;2023-01-09T05:12:30;59.15;;;36.55;;
25663;SDS011;13522;50.018;20.014;2023-01-09T05:15:43;58.90;;;36.53;;
25663;SDS011;13522;50.018;20.014;2023-01-09T05:18:55;58.15;;;38.10;;
25663;SDS011;13522;50.018;20.014;2023-01-09T05:22:07;62.70;;;39.68;;
25663;SDS011;13522;50.018;20.014;2023-01-09T05:25:19;67.23;;;40.58;;
25663;SDS011;13522;50.018;20.014;2023-01-09T05:28:32;61.18;;;38.93;;
25663;SDS011;13522;50.018;20.014;2023-01-09T05:31:44;55.80;;;35.88;;
25663;SDS011;13522;50.018;20.014;2023-01-09T05:34:56;57.60;;;36.05;;
25663;SDS011;13522;50.018;20.014;2023-01-09T05:38:08;56.03;;;35.20;;
25663;SDS011;13522;50.018;20.014;2023-01-09T05:41:20;58.48;;;37.35;;
25663;SDS011;13522;50.018;20.014;2023-01-09T05:44:33;55.53;;;36.13;;
25663;SDS011;13522;50.018;20.014;2023-01-09T05:47:45;58.70;;;35.43;;
25663;SDS011;13522;50.018;20.014;2023-01-09T05:50:57;52.30;;;33.48;;
25663;SDS011;13522;50.018;20.014;2023-01-09T05:54:09;51.58;;;32.98;;
25663;SDS011;13522;50.018;20.014;2023-01-09T05:57:22;53.95;;;35.03;;
25663;SDS011;13522;50.018;20.014;2023-01-09T06:00:34;56.90;;;35.58;;
25663;SDS011;13522;50.018;20.014;2023-01-09T06:03:46;53.90;;;35.25;;
25663;SDS011;13522;50.018;20.014;2023-01-09T06:06:58;52.93;;;33.80;;
25663;SDS011;13522;50.018;20.014;2023-01-09T06:10:11;52.45;;;32.70;;
25663;SDS011;13522;50.018;20.014;2023-01-09T06:13:25;53.25;;;33.48;;
25663;SDS011;13522;50.018;20.014;2023-01-09T06:16:37;53.13;;;34.25;;
25663;SDS011;13522;50.018;20.014;2023-01-09T06:19:49;55.38;;;34.50;;
25663;SDS011;13522;50.018;20.014;2023-01-09T06:23:01;56.05;;;35.25;;
25663;SDS011;13522;50.018;20.014;2023-01-09T06:26:15;53.75;;;34.80;;
25663;SDS011;13522;50.018;20.014;2023-01-09T06:29:28;59.50;;;33.93;;
25663;SDS011;13522;50.018;20.014;2023-01-09T06:32:40;54.63;;;33.73;;
25663;SDS011;13522;50.018;20.014;2023-01-09T06:35:52;52.30;;;33.63;;
25663;SDS011;13522;50.018;20.014;2023-01-09T06:39:04;55.45;;;35.65;;
25663;SDS011;13522;50.018;20.014;2023-01-09T06:42:17;60.25;;;38.43;;
25663;SDS011;13522;50.018;20.014;2023-01-09T06:45:29;56.95;;;35.58;;
25663;SDS011;13522;50.018;20.014;2023-01-09T06:48:41;50.53;;;33.23;;
25663;SDS011;13522;50.018;20.014;2023-01-09T06:51:53;50.58;;;34.48;;
25663;SDS011;13522;50.018;20.014;2023-01-09T06:55:08;53.08;;;34.30;;
25663;SDS011;13522;50.018;20.014;2023-01-09T06:58:20;54.05;;;33.85;;
25663;SDS011;13522;50.018;20.014;2023-01-09T07:01:33;44.98;;;26.80;;
25663;SDS011;13522;50.018;20.014;2023-01-09T07:04:46;51.28;;;30.98;;
25663;SDS011;13522;50.018;20.014;2023-01-09T07:07:58;43.75;;;26.50;;
25663;SDS011;13522;50.018;20.014;2023-01-09T07:11:11;47.75;;;29.55;;
25663;SDS011;13522;50.018;20.014;2023-01-09T07:14:23;42.78;;;27.28;;
25663;SDS011;13522;50.018;20.014;2023-01-09T07:17:35;48.55;;;29.75;;
25663;SDS011;13522;50.018;20.014;2023-01-09T07:20:47;43.70;;;27.80;;
25663;SDS011;13522;50.018;20.014;2023-01-09T07:24:00;47.63;;;29.55;;
25663;SDS011;13522;50.018;20.014;2023-01-09T07:27:12;44.25;;;27.13;;
25663;SDS011;13522;50.018;20.014;2023-01-09T07:30:25;190.40;;;111.75;;
25663;SDS011;13522;50.018;20.014;2023-01-09T07:33:37;62.05;;;37.45;;
25663;SDS011;13522;50.018;20.014;2023-01-09T07:36:49;49.75;;;31.03;;
25663;SDS011;13522;50.018;20.014;2023-01-09T07:40:01;40.43;;;24.73;;
25663;SDS011;13522;50.018;20.014;2023-01-09T07:43:15;45.73;;;24.38;;
25663;SDS011;13522;50.018;20.014;2023-01-09T07:46:28;34.30;;;16.90;;
25663;SDS011;13522;50.018;20.014;2023-01-09T07:49:40;22.40;;;13.98;;
25663;SDS011;13522;50.018;20.014;2023-01-09T07:52:52;20.80;;;13.58;;
25663;SDS011;13522;50.018;20.014;2023-01-09T07:56:05;21.98;;;14.05;;
25663;SDS011;13522;50.018;20.014;2023-01-09T07:59:17;15.30;;;11.05;;
25663;SDS011;13522;50.018;20.014;2023-01-09T08:02:30;18.58;;;12.33;;
25663;SDS011;13522;50.018;20.014;2023-01-09T08:05:43;20.25;;;11.95;;
25663;SDS011;13522;50.018;20.014;2023-01-09T08:08:56;19.23;;;12.78;;
25663;SDS011;13522;50.018;20.014;2023-01-09T08:12:08;20.80;;;12.13;;
25663;SDS011;13522;50.018;20.014;2023-01-09T08:15:20;18.50;;;12.88;;
25663;SDS011;13522;50.018;20.014;2023-01-09T08:18:33;24.45;;;12.68;;
25663;SDS011;13522;50.018;20.014;2023-01-09T08:21:45;24.05;;;13.88;;
25663;SDS011;13522;50.018;20.014;2023-01-09T08:24:57;20.05;;;12.60;;
25663;SDS011;13522;50.018;20.014;2023-01-09T08:28:09;19.80;;;13.23;;
25663;SDS011;13522;50.018;20.014;2023-01-09T08:31:21;17.70;;;11.43;;
25663;SDS011;13522;50.018;20.014;2023-01-09T08:34:33;16.95;;;10.85;;
25663;SDS011;13522;50.018;20.014;2023-01-09T08:37:46;16.23;;;9.53;;
25663;SDS011;13522;50.018;20.014;2023-01-09T08:40:59;16.23;;;9.55;;
25663;SDS011;13522;50.018;20.014;2023-01-09T08:44:12;18.85;;;12.43;;
25663;SDS011;13522;50.018;20.014;2023-01-09T08:47:39;15.25;;;10.30;;
25663;SDS011;13522;50.018;20.014;2023-01-09T08:50:51;18.50;;;11.88;;
25663;SDS011;13522;50.018;20.014;2023-01-09T08:54:03;18.20;;;11.10;;
25663;SDS011;13522;50.018;20.014;2023-01-09T08:57:15;17.23;;;10.88;;
25663;SDS011;13522;50.018;20.014;2023-01-09T09:00:27;12.83;;;8.45;;
25663;SDS011;13522;50.018;20.014;2023-01-09T09:03:39;16.65;;;10.20;;
25663;SDS011;13522;50.018;20.014;2023-01-09T09:06:51;17.70;;;10.30;;
25663;SDS011;13522;50.018;20.014;2023-01-09T09:10:04;16.33;;;10.68;;
25663;SDS011;13522;50.018;20.014;2023-01-09T09:13:17;18.13;;;11.00;;
25663;SDS011;13522;50.018;20.014;2023-01-09T09:16:29;17.58;;;10.98;;
25663;SDS011;13522;50.018;20.014;2023-01-09T09:19:41;15.85;;;10.40;;
25663;SDS011;13522;50.018;20.014;2023-01-09T09:22:53;18.58;;;10.80;;
25663;SDS011;13522;50.018;20.014;2023-01-09T09:26:05;13.83;;;9.88;;
25663;SDS011;13522;50.018;20.014;2023-01-09T09:29:17;18.70;;;9.43;;
25663;SDS011;13522;50.018;20.014;2023-01-09T09:32:29;12.53;;;8.58;;
25663;SDS011;13522;50.018;20.014;2023-01-09T09:35:42;14.93;;;9.50;;
25663;SDS011;13522;50.018;20.014;2023-01-09T09:38:54;17.98;;;9.98;;
25663;SDS011;13522;50.018;20.014;2023-01-09T09:42:16;15.20;;;9.08;;
25663;SDS011;13522;50.018;20.014;2023-01-09T09:46:08;36.38;;;19.40;;
25663;SDS011;13522;50.018;20.014;2023-01-09T09:49:27;17.88;;;11.05;;
25663;SDS011;13522;50.018;20.014;2023-01-09T09:52:44;30.20;;;19.95;;
25663;SDS011;13522;50.018;20.014;2023-01-09T09:56:00;36.30;;;23.18;;
25663;SDS011;13522;50.018;20.014;2023-01-09T09:59:14;35.53;;;22.20;;
25663;SDS011;13522;50.018;20.014;2023-01-09T10:02:31;35.85;;;23.58;;
25663;SDS011;13522;50.018;20.014;2023-01-09T10:05:49;40.25;;;24.95;;
25663;SDS011;13522;50.018;20.014;2023-01-09T10:09:04;33.43;;;21.95;;
25663;SDS011;13522;50.018;20.014;2023-01-09T10:12:25;35.88;;;22.23;;
25663;SDS011;13522;50.018;20.014;2023-01-09T10:15:41;33.23;;;21.08;;
25663;SDS011;13522;50.018;20.014;2023-01-09T10:19:01;32.63;;;21.88;;
25663;SDS011;13522;50.018;20.014;2023-01-09T10:22:23;31.23;;;19.18;;
25663;SDS011;13522;50.018;20.014;2023-01-09T10:25:42;21.58;;;15.85;;
25663;SDS011;13522;50.018;20.014;2023-01-09T10:29:07;26.30;;;17.33;;
25663;SDS011;13522;50.018;20.014;2023-01-09T10:32:43;23.08;;;14.65;;
25663;SDS011;13522;50.018;20.014;2023-01-09T10:36:16;28.88;;;14.35;;
25663;SDS011;13522;50.018;20.014;2023-01-09T10:39:40;15.08;;;10.63;;
25663;SDS011;13522;50.018;20.014;2023-01-09T10:42:58;13.58;;;7.90;;
25663;SDS011;13522;50.018;20.014;2023-01-09T10:46:16;8.63;;;6.03;;
25663;SDS011;13522;50.018;20.014;2023-01-09T10:49:32;8.40;;;4.98;;
25663;SDS011;13522;50.018;20.014;2023-01-09T10:52:48;6.85;;;4.93;;
25663;SDS011;13522;50.018;20.014;2023-01-09T10:56:04;7.73;;;4.53;;
25663;SDS011;13522;50.018;20.014;2023-01-09T10:59:22;6.65;;;4.03;;
25663;SDS011;13522;50.018;20.014;2023-01-09T11:02:34;5.63;;;4.00;;
25663;SDS011;13522;50.018;20.014;2023-01-09T11:05:48;7.40;;;4.63;;
25663;SDS011;13522;50.018;20.014;2023-01-09T11:09:03;7.05;;;4.70;;
25663;SDS011;13522;50.018;20.014;2023-01-09T11:12:23;8.00;;;5.18;;
25663;SDS011;13522;50.018;20.014;2023-01-09T11:15:37;7.80;;;4.65;;
25663;SDS011;13522;50.018;20.014;2023-01-09T11:18:50;10.08;;;5.03;;
25663;SDS011;13522;50.018;20.014;2023-01-09T11:22:13;7.38;;;4.20;;
25663;SDS011;13522;50.018;20.014;2023-01-09T11:25:25;9.55;;;5.63;;
25663;SDS011;13522;50.018;20.014;2023-01-09T11:28:37;9.35;;;5.88;;
25663;SDS011;13522;50.018;20.014;2023-01-09T11:31:51;11.23;;;7.75;;
25663;SDS011;13522;50.018;20.014;2023-01-09T11:35:05;13.95;;;7.95;;
25663;SDS011;13522;50.018;20.014;2023-01-09T11:38:27;12.55;;;7.35;;
25663;SDS011;13522;50.018;20.014;2023-01-09T11:41:43;10.07;;;6.97;;
25663;SDS011;13522;50.018;20.014;2023-01-09T11:44:57;11.70;;;7.20;;
25663;SDS011;13522;50.018;20.014;2023-01-09T11:48:16;14.60;;;8.05;;
25663;SDS011;13522;50.018;20.014;2023-01-09T11:52:03;9.85;;;6.03;;
25663;SDS011;13522;50.018;20.014;2023-01-09T11:55:23;10.15;;;5.88;;
25663;SDS011;13522;50.018;20.014;2023-01-09T11:58:38;9.93;;;5.83;;
25663;SDS011;13522;50.018;20.014;2023-01-09T12:05:37;9.63;;;4.98;;
25663;SDS011;13522;50.018;20.014;2023-01-09T12:08:55;8.63;;;5.10;;
25663;SDS011;13522;50.018;20.014;2023-01-09T12:12:14;10.43;;;5.93;;
25663;SDS011;13522;50.018;20.014;2023-01-09T12:15:34;8.95;;;5.43;;
25663;SDS011;13522;50.018;20.014;2023-01-09T12:18:53;7.95;;;5.20;;
25663;SDS011;13522;50.018;20.014;2023-01-09T12:22:14;10.50;;;4.90;;
25663;SDS011;13522;50.018;20.014;2023-01-09T12:25:35;8.95;;;4.20;;
25663;SDS011;13522;50.018;20.014;2023-01-09T12:29:05;8.50;;;3.38;;
25663;SDS011;13522;50.018;20.014;2023-01-09T12:32:31;5.10;;;2.83;;
25663;SDS011;13522;50.018;20.014;2023-01-09T12:35:56;3.93;;;2.53;;
25663;SDS011;13522;50.018;20.014;2023-01-09T12:39:26;3.05;;;2.08;;
25663;SDS011;13522;50.018;20.014;2023-01-09T12:42:48;5.08;;;2.30;;
25663;SDS011;13522;50.018;20.014;2023-01-09T12:46:08;6.20;;;2.00;;
25663;SDS011;13522;50.018;20.014;2023-01-09T12:49:27;3.20;;;2.05;;
25663;SDS011;13522;50.018;20.014;2023-01-09T12:52:45;4.35;;;2.20;;
25663;SDS011;13522;50.018;20.014;2023-01-09T12:56:04;3.10;;;2.08;;
25663;SDS011;13522;50.018;20.014;2023-01-09T13:02:38;2.80;;;1.80;;
25663;SDS011;13522;50.018;20.014;2023-01-09T13:05:54;9.60;;;2.75;;
25663;SDS011;13522;50.018;20.014;2023-01-09T13:09:11;34.53;;;21.35;;
25663;SDS011;13522;50.018;20.014;2023-01-09T13:12:30;12.43;;;6.75;;
25663;SDS011;13522;50.018;20.014;2023-01-09T13:15:46;13.18;;;6.98;;
25663;SDS011;13522;50.018;20.014;2023-01-09T13:19:04;9.43;;;5.98;;
25663;SDS011;13522;50.018;20.014;2023-01-09T13:22:23;10.43;;;5.40;;
25663;SDS011;13522;50.018;20.014;2023-01-09T13:25:41;9.85;;;5.70;;
25663;SDS011;13522;50.018;20.014;2023-01-09T13:28:57;11.10;;;5.80;;
25663;SDS011;13522;50.018;20.014;2023-01-09T13:32:25;13.20;;;6.83;;
25663;SDS011;13522;50.018;20.014;2023-01-09T13:35:50;12.93;;;6.90;;
25663;SDS011;13522;50.018;20.014;2023-01-09T13:39:06;16.00;;;8.90;;
25663;SDS011;13522;50.018;20.014;2023-01-09T13:42:28;13.00;;;6.95;;
25663;SDS011;13522;50.018;20.014;2023-01-09T13:45:46;16.35;;;9.15;;
25663;SDS011;13522;50.018;20.014;2023-01-09T13:49:02;14.95;;;7.45;;
25663;SDS011;13522;50.018;20.014;2023-01-09T13:52:29;14.43;;;7.33;;
25663;SDS011;13522;50.018;20.014;2023-01-09T13:59:26;14.08;;;7.85;;
25663;SDS011;13522;50.018;20.014;2023-01-09T14:02:57;12.48;;;6.40;;
25663;SDS011;13522;50.018;20.014;2023-01-09T14:06:24;16.65;;;8.73;;
25663;SDS011;13522;50.018;20.014;2023-01-09T14:09:36;18.15;;;10.05;;
25663;SDS011;13522;50.018;20.014;2023-01-09T14:12:52;18.90;;;11.03;;
25663;SDS011;13522;50.018;20.014;2023-01-09T14:16:06;21.93;;;11.25;;
25663;SDS011;13522;50.018;20.014;2023-01-09T14:19:33;25.33;;;11.88;;
25663;SDS011;13522;50.018;20.014;2023-01-09T14:22:47;19.83;;;10.93;;
25663;SDS011;13522;50.018;20.014;2023-01-09T14:26:13;26.98;;;12.68;;
25663;SDS011;13522;50.018;20.014;2023-01-09T14:29:38;23.78;;;12.18;;
25663;SDS011;13522;50.018;20.014;2023-01-09T14:32:57;30.18;;;12.35;;
25663;SDS011;13522;50.018;20.014;2023-01-09T14:36:15;25.93;;;11.95;;
25663;SDS011;13522;50.018;20.014;2023-01-09T14:39:31;21.58;;;12.55;;
25663;SDS011;13522;50.018;20.014;2023-01-09T14:42:45;24.18;;;12.05;;
25663;SDS011;13522;50.018;20.014;2023-01-09T14:46:03;26.68;;;11.03;;
25663;SDS011;13522;50.018;20.014;2023-01-09T14:49:23;22.50;;;11.73;;
25663;SDS011;13522;50.018;20.014;2023-01-09T14:52:43;24.28;;;10.93;;
25663;SDS011;13522;50.018;20.014;2023-01-09T14:55:59;20.50;;;12.58;;
25663;SDS011;13522;50.018;20.014;2023-01-09T14:59:15;23.73;;;12.65;;
25663;SDS011;13522;50.018;20.014;2023-01-09T15:02:28;22.50;;;11.83;;
25663;SDS011;13522;50.018;20.014;2023-01-09T15:05:44;20.65;;;11.38;;
25663;SDS011;13522;50.018;20.014;2023-01-09T15:08:59;26.95;;;11.45;;
25663;SDS011;13522;50.018;20.014;2023-01-09T15:12:16;26.73;;;11.50;;
25663;SDS011;13522;50.018;20.014;2023-01-09T15:15:31;21.38;;;11.33;;
25663;SDS011;13522;50.018;20.014;2023-01-09T15:18:45;26.68;;;13.03;;
25663;SDS011;13522;50.018;20.014;2023-01-09T15:22:01;27.07;;;13.30;;
25663;SDS011;13522;50.018;20.014;2023-01-09T15:25:24;23.08;;;12.20;;
25663;SDS011;13522;50.018;20.014;2023-01-09T15:28:41;23.33;;;13.75;;
25663;SDS011;13522;50.018;20.014;2023-01-09T15:31:54;24.60;;;12.80;;
25663;SDS011;13522;50.018;20.014;2023-01-09T15:35:12;26.53;;;14.60;;
25663;SDS011;13522;50.018;20.014;2023-01-09T15:38:25;31.68;;;15.65;;
25663;SDS011;13522;50.018;20.014;2023-01-09T15:41:40;31.00;;;15.35;;
25663;SDS011;13522;50.018;20.014;2023-01-09T15:45:20;33.43;;;16.00;;
25663;SDS011;13522;50.018;20.014;2023-01-09T15:48:35;31.05;;;16.60;;
25663;SDS011;13522;50.018;20.014;2023-01-09T15:51:47;41.33;;;17.23;;
25663;SDS011;13522;50.018;20.014;2023-01-09T15:55:00;31.55;;;16.78;;
25663;SDS011;13522;50.018;20.014;2023-01-09T15:58:25;27.28;;;16.03;;
25663;SDS011;13522;50.018;20.014;2023-01-09T16:01:39;30.38;;;16.33;;
25663;SDS011;13522;50.018;20.014;2023-01-09T16:04:54;26.55;;;13.43;;
25663;SDS011;13522;50.018;20.014;2023-01-09T16:08:14;26.63;;;15.30;;
25663;SDS011;13522;50.018;20.014;2023-01-09T16:11:37;27.38;;;14.95;;
25663;SDS011;13522;50.018;20.014;2023-01-09T16:14:55;24.05;;;13.35;;
25663;SDS011;13522;50.018;20.014;2023-01-09T16:18:17;19.90;;;11.53;;
25663;SDS011;13522;50.018;20.014;2023-01-09T16:21:34;14.40;;;8.40;;
25663;SDS011;13522;50.018;20.014;2023-01-09T16:24:48;11.40;;;6.85;;
25663;SDS011;13522;50.018;20.014;2023-01-09T16:28:13;9.43;;;5.95;;
25663;SDS011;13522;50.018;20.014;2023-01-09T16:31:33;8.83;;;5.43;;
25663;SDS011;13522;50.018;20.014;2023-01-09T16:34:45;8.10;;;4.93;;
25663;SDS011;13522;50.018;20.014;2023-01-09T16:38:09;6.80;;;4.50;;
25663;SDS011;13522;50.018;20.014;2023-01-09T16:41:24;7.10;;;4.18;;
25663;SDS011;13522;50.018;20.014;2023-01-09T16:44:51;5.90;;;3.50;;
25663;SDS011;13522;50.018;20.014;2023-01-09T16:48:09;8.08;;;4.05;;
25663;SDS011;13522;50.018;20.014;2023-01-09T16:51:23;9.28;;;4.58;;
25663;SDS011;13522;50.018;20.014;2023-01-09T16:54:36;9.33;;;4.35;;
25663;SDS011;13522;50.018;20.014;2023-01-09T16:57:50;13.65;;;4.60;;
25663;SDS011;13522;50.018;20.014;2023-01-09T17:01:02;26.48;;;5.78;;
25663;SDS011;13522;50.018;20.014;2023-01-09T17:04:16;26.25;;;5.10;;
25663;SDS011;13522;50.018;20.014;2023-01-09T17:07:31;28.20;;;6.05;;
25663;SDS011;13522;50.018;20.014;2023-01-09T17:10:43;12.45;;;5.75;;
25663;SDS011;13522;50.018;20.014;2023-01-09T17:13:55;11.85;;;5.83;;
25663;SDS011;13522;50.018;20.014;2023-01-09T17:17:09;8.63;;;5.58;;
25663;SDS011;13522;50.018;20.014;2023-01-09T17:20:22;12.93;;;6.53;;
25663;SDS011;13522;50.018;20.014;2023-01-09T17:23:36;9.35;;;5.90;;
25663;SDS011;13522;50.018;20.014;2023-01-09T17:26:48;10.75;;;6.20;;
25663;SDS011;13522;50.018;20.014;2023-01-09T17:30:16;10.58;;;6.38;;
25663;SDS011;13522;50.018;20.014;2023-01-09T17:33:29;9.88;;;6.48;;
25663;SDS011;13522;50.018;20.014;2023-01-09T17:36:43;11.28;;;6.68;;
25663;SDS011;13522;50.018;20.014;2023-01-09T17:39:56;9.68;;;6.35;;
25663;SDS011;13522;50.018;20.014;2023-01-09T17:43:08;11.93;;;6.58;;
25663;SDS011;13522;50.018;20.014;2023-01-09T17:46:23;16.60;;;7.43;;
25663;SDS011;13522;50.018;20.014;2023-01-09T17:49:39;12.65;;;7.00;;
25663;SDS011;13522;50.018;20.014;2023-01-09T17:52:51;12.95;;;7.95;;
25663;SDS011;13522;50.018;20.014;2023-01-09T17:56:04;15.73;;;8.50;;
25663;SDS011;13522;50.018;20.014;2023-01-09T17:59:18;12.15;;;7.83;;
25663;SDS011;13522;50.018;20.014;2023-01-09T18:02:32;12.80;;;7.75;;
25663;SDS011;13522;50.018;20.014;2023-01-09T18:05:44;14.15;;;8.23;;
25663;SDS011;13522;50.018;20.014;2023-01-09T18:08:56;13.90;;;8.45;;
25663;SDS011;13522;50.018;20.014;2023-01-09T18:12:09;13.88;;;9.40;;
25663;SDS011;13522;50.018;20.014;2023-01-09T18:15:22;15.23;;;9.15;;
25663;SDS011;13522;50.018;20.014;2023-01-09T18:18:34;13.28;;;9.35;;
25663;SDS011;13522;50.018;20.014;2023-01-09T18:21:48;13.33;;;8.45;;
25663;SDS011;13522;50.018;20.014;2023-01-09T18:25:02;14.00;;;9.60;;
25663;SDS011;13522;50.018;20.014;2023-01-09T18:28:16;15.08;;;9.95;;
25663;SDS011;13522;50.018;20.014;2023-01-09T18:31:28;21.23;;;15.15;;
25663;SDS011;13522;50.018;20.014;2023-01-09T18:34:41;20.78;;;12.85;;
25663;SDS011;13522;50.018;20.014;2023-01-09T18:37:53;14.55;;;9.88;;
25663;SDS011;13522;50.018;20.014;2023-01-09T18:41:05;16.38;;;9.58;;
25663;SDS011;13522;50.018;20.014;2023-01-09T18:44:18;16.28;;;10.20;;
25663;SDS011;13522;50.018;20.014;2023-01-09T18:47:30;18.05;;;10.95;;
25663;SDS011;13522;50.018;20.014;2023-01-09T18:50:42;18.98;;;11.23;;
25663;SDS011;13522;50.018;20.014;2023-01-09T18:53:55;17.65;;;11.15;;
25663;SDS011;13522;50.018;20.014;2023-01-09T18:57:07;20.45;;;12.38;;
25663;SDS011;13522;50.018;20.014;2023-01-09T19:00:20;20.38;;;12.73;;
25663;SDS011;13522;50.018;20.014;2023-01-09T19:03:32;21.90;;;12.78;;
25663;SDS011;13522;50.018;20.014;2023-01-09T19:06:45;19.93;;;12.80;;
25663;SDS011;13522;50.018;20.014;2023-01-09T19:09:59;20.05;;;12.30;;
25663;SDS011;13522;50.018;20.014;2023-01-09T19:13:12;18.28;;;12.28;;